sensor_id;sensor_type;location;lat;lon;timestamp;P1;durP1;ratioP1;P2;durP2;ratioP2
60726;SDS011;46577;49.004;12.120;2023-03-23T00:01:32;8.43;;;5.70;;
60726;SDS011;46577;49.004;12.120;2023-03-23T00:04:01;8.90;;;5.13;;
60726;SDS011;46577;49.004;12.120;2023-03-23T00:06:28;9.50;;;4.37;;
60726;SDS011;46577;49.004;12.120;2023-03-23T00:08:59;9.87;;;5.90;;
60726;SDS011;46577;49.004;12.120;2023-03-23T00:11:28;15.43;;;5.30;;
60726;SDS011;46577;49.004;12.120;2023-03-23T00:13:55;7.83;;;4.33;;
60726;SDS011;46577;49.004;12.120;2023-03-23T00:16:24;10.33;;;6.17;;
60726;SDS011;46577;49.004;12.120;2023-03-23T00:19:06;10.70;;;5.83;;
60726;SDS011;46577;49.004;12.120;2023-03-23T00:21:35;15.83;;;5.20;;
60726;SDS011;46577;49.004;12.120;2023-03-23T00:24:05;7.90;;;5.40;;
60726;SDS011;46577;49.004;12.120;2023-03-23T00:26:33;17.07;;;5.63;;
60726;SDS011;46577;49.004;12.120;2023-03-23T00:29:01;8.10;;;5.30;;
60726;SDS011;46577;49.004;12.120;2023-03-23T00:31:30;9.13;;;5.77;;
60726;SDS011;46577;49.004;12.120;2023-03-23T00:34:01;10.43;;;5.20;;
60726;SDS011;46577;49.004;12.120;2023-03-23T00:36:30;8.43;;;5.33;;
60726;SDS011;46577;49.004;12.120;2023-03-23T00:38:57;7.40;;;5.07;;
60726;SDS011;46577;49.004;12.120;2023-03-23T00:41:26;8.73;;;5.97;;
60726;SDS011;46577;49.004;12.120;2023-03-23T00:43:56;8.07;;;5.03;;
60726;SDS011;46577;49.004;12.120;2023-03-23T00:46:23;11.83;;;5.50;;
60726;SDS011;46577;49.004;12.120;2023-03-23T00:48:49;13.13;;;6.43;;
60726;SDS011;46577;49.004;12.120;2023-03-23T00:51:16;9.50;;;5.97;;
60726;SDS011;46577;49.004;12.120;2023-03-23T00:53:42;9.70;;;6.13;;
60726;SDS011;46577;49.004;12.120;2023-03-23T00:56:08;16.43;;;7.07;;
60726;SDS011;46577;49.004;12.120;2023-03-23T00:58:34;15.00;;;6.47;;
60726;SDS011;46577;49.004;12.120;2023-03-23T01:01:00;11.13;;;6.33;;
60726;SDS011;46577;49.004;12.120;2023-03-23T01:03:25;10.70;;;6.73;;
60726;SDS011;46577;49.004;12.120;2023-03-23T01:05:53;9.90;;;6.30;;
60726;SDS011;46577;49.004;12.120;2023-03-23T01:08:20;7.47;;;6.23;;
60726;SDS011;46577;49.004;12.120;2023-03-23T01:10:46;10.70;;;6.70;;
60726;SDS011;46577;49.004;12.120;2023-03-23T01:13:13;12.63;;;6.67;;
60726;SDS011;46577;49.004;12.120;2023-03-23T01:15:39;20.90;;;6.43;;
60726;SDS011;46577;49.004;12.120;2023-03-23T01:18:05;8.73;;;6.73;;
60726;SDS011;46577;49.004;12.120;2023-03-23T01:20:31;11.83;;;6.63;;
60726;SDS011;46577;49.004;12.120;2023-03-23T01:22:57;14.50;;;7.80;;
60726;SDS011;46577;49.004;12.120;2023-03-23T01:25:27;12.57;;;6.90;;
60726;SDS011;46577;49.004;12.120;2023-03-23T01:27:54;10.40;;;6.27;;
60726;SDS011;46577;49.004;12.120;2023-03-23T01:30:21;8.70;;;6.30;;
60726;SDS011;46577;49.004;12.120;2023-03-23T01:32:46;13.57;;;6.93;;
60726;SDS011;46577;49.004;12.120;2023-03-23T01:35:12;8.20;;;6.20;;
60726;SDS011;46577;49.004;12.120;2023-03-23T01:37:38;11.47;;;6.40;;
60726;SDS011;46577;49.004;12.120;2023-03-23T01:40:04;10.77;;;6.40;;
60726;SDS011;46577;49.004;12.120;2023-03-23T01:42:32;11.93;;;7.80;;
60726;SDS011;46577;49.004;12.120;2023-03-23T01:47:44;11.03;;;6.00;;
60726;SDS011;46577;49.004;12.120;2023-03-23T01:50:11;12.33;;;7.00;;
60726;SDS011;46577;49.004;12.120;2023-03-23T01:52:37;10.67;;;6.67;;
60726;SDS011;46577;49.004;12.120;2023-03-23T01:55:04;9.40;;;6.03;;
60726;SDS011;46577;49.004;12.120;2023-03-23T01:57:31;12.80;;;6.63;;
60726;SDS011;46577;49.004;12.120;2023-03-23T01:59:57;12.37;;;6.97;;
60726;SDS011;46577;49.004;12.120;2023-03-23T02:02:25;9.73;;;6.50;;
60726;SDS011;46577;49.004;12.120;2023-03-23T02:04:52;15.13;;;7.00;;
60726;SDS011;46577;49.004;12.120;2023-03-23T02:07:24;11.57;;;6.50;;
60726;SDS011;46577;49.004;12.120;2023-03-23T02:09:50;18.60;;;6.83;;
60726;SDS011;46577;49.004;12.120;2023-03-23T02:12:16;11.43;;;6.43;;
60726;SDS011;46577;49.004;12.120;2023-03-23T02:14:42;13.30;;;6.80;;
60726;SDS011;46577;49.004;12.120;2023-03-23T02:17:09;11.17;;;7.07;;
60726;SDS011;46577;49.004;12.120;2023-03-23T02:35:37;15.53;;;6.47;;
60726;SDS011;46577;49.004;12.120;2023-03-23T02:38:15;13.97;;;8.30;;
60726;SDS011;46577;49.004;12.120;2023-03-23T02:40:45;14.30;;;6.87;;
60726;SDS011;46577;49.004;12.120;2023-03-23T02:43:15;11.77;;;6.87;;
60726;SDS011;46577;49.004;12.120;2023-03-23T02:45:46;8.93;;;6.70;;
60726;SDS011;46577;49.004;12.120;2023-03-23T02:48:13;16.07;;;7.50;;
60726;SDS011;46577;49.004;12.120;2023-03-23T02:50:44;12.77;;;7.17;;
60726;SDS011;46577;49.004;12.120;2023-03-23T02:53:13;11.97;;;6.90;;
60726;SDS011;46577;49.004;12.120;2023-03-23T02:55:43;12.40;;;6.80;;
60726;SDS011;46577;49.004;12.120;2023-03-23T02:58:10;11.43;;;7.30;;
60726;SDS011;46577;49.004;12.120;2023-03-23T03:00:36;18.87;;;6.63;;
60726;SDS011;46577;49.004;12.120;2023-03-23T03:03:02;16.80;;;7.47;;
60726;SDS011;46577;49.004;12.120;2023-03-23T03:10:54;11.77;;;6.90;;
60726;SDS011;46577;49.004;12.120;2023-03-23T03:16:27;11.93;;;7.50;;
60726;SDS011;46577;49.004;12.120;2023-03-23T03:18:58;9.43;;;6.27;;
60726;SDS011;46577;49.004;12.120;2023-03-23T03:21:30;11.90;;;6.67;;
60726;SDS011;46577;49.004;12.120;2023-03-23T03:24:00;10.67;;;7.53;;
60726;SDS011;46577;49.004;12.120;2023-03-23T03:26:28;12.17;;;7.43;;
60726;SDS011;46577;49.004;12.120;2023-03-23T03:28:56;21.03;;;8.00;;
60726;SDS011;46577;49.004;12.120;2023-03-23T03:31:24;10.40;;;7.60;;
60726;SDS011;46577;49.004;12.120;2023-03-23T03:33:54;12.90;;;7.47;;
60726;SDS011;46577;49.004;12.120;2023-03-23T03:36:21;10.93;;;6.47;;
60726;SDS011;46577;49.004;12.120;2023-03-23T03:38:52;10.93;;;7.17;;
60726;SDS011;46577;49.004;12.120;2023-03-23T03:41:18;10.90;;;6.93;;
60726;SDS011;46577;49.004;12.120;2023-03-23T03:43:44;11.53;;;6.90;;
60726;SDS011;46577;49.004;12.120;2023-03-23T03:46:10;14.10;;;6.50;;
60726;SDS011;46577;49.004;12.120;2023-03-23T03:48:36;9.37;;;7.23;;
60726;SDS011;46577;49.004;12.120;2023-03-23T03:51:02;10.97;;;7.67;;
60726;SDS011;46577;49.004;12.120;2023-03-23T03:53:28;15.17;;;7.50;;
60726;SDS011;46577;49.004;12.120;2023-03-23T03:55:53;21.13;;;6.90;;
60726;SDS011;46577;49.004;12.120;2023-03-23T03:58:25;14.10;;;7.07;;
60726;SDS011;46577;49.004;12.120;2023-03-23T04:00:56;11.50;;;6.70;;
60726;SDS011;46577;49.004;12.120;2023-03-23T04:03:26;12.67;;;7.10;;
60726;SDS011;46577;49.004;12.120;2023-03-23T04:05:53;15.97;;;7.70;;
60726;SDS011;46577;49.004;12.120;2023-03-23T04:08:20;16.63;;;6.80;;
60726;SDS011;46577;49.004;12.120;2023-03-23T04:10:51;11.33;;;7.40;;
60726;SDS011;46577;49.004;12.120;2023-03-23T04:13:18;22.33;;;7.37;;
60726;SDS011;46577;49.004;12.120;2023-03-23T04:15:45;13.00;;;7.60;;
60726;SDS011;46577;49.004;12.120;2023-03-23T04:18:12;17.40;;;7.47;;
60726;SDS011;46577;49.004;12.120;2023-03-23T04:20:39;13.10;;;7.67;;
60726;SDS011;46577;49.004;12.120;2023-03-23T04:23:06;13.03;;;7.20;;
60726;SDS011;46577;49.004;12.120;2023-03-23T04:25:32;19.23;;;7.40;;
60726;SDS011;46577;49.004;12.120;2023-03-23T04:27:58;10.13;;;7.40;;
60726;SDS011;46577;49.004;12.120;2023-03-23T04:30:26;11.80;;;7.23;;
60726;SDS011;46577;49.004;12.120;2023-03-23T04:32:52;19.47;;;7.20;;
60726;SDS011;46577;49.004;12.120;2023-03-23T04:35:22;13.10;;;7.40;;
60726;SDS011;46577;49.004;12.120;2023-03-23T04:37:51;15.70;;;7.30;;
60726;SDS011;46577;49.004;12.120;2023-03-23T04:40:18;13.77;;;7.53;;
60726;SDS011;46577;49.004;12.120;2023-03-23T04:42:44;10.67;;;7.10;;
60726;SDS011;46577;49.004;12.120;2023-03-23T04:45:10;10.93;;;7.60;;
60726;SDS011;46577;49.004;12.120;2023-03-23T04:47:39;10.10;;;6.63;;
60726;SDS011;46577;49.004;12.120;2023-03-23T04:50:09;12.37;;;7.47;;
60726;SDS011;46577;49.004;12.120;2023-03-23T04:52:39;19.20;;;7.33;;
60726;SDS011;46577;49.004;12.120;2023-03-23T04:55:10;13.47;;;7.80;;
60726;SDS011;46577;49.004;12.120;2023-03-23T04:57:37;16.43;;;7.30;;
60726;SDS011;46577;49.004;12.120;2023-03-23T05:00:03;10.27;;;6.97;;
60726;SDS011;46577;49.004;12.120;2023-03-23T05:02:36;22.70;;;8.40;;
60726;SDS011;46577;49.004;12.120;2023-03-23T05:05:04;11.33;;;6.93;;
60726;SDS011;46577;49.004;12.120;2023-03-23T05:07:35;12.20;;;8.03;;
60726;SDS011;46577;49.004;12.120;2023-03-23T05:10:02;13.80;;;9.00;;
60726;SDS011;46577;49.004;12.120;2023-03-23T05:12:28;9.90;;;7.57;;
60726;SDS011;46577;49.004;12.120;2023-03-23T05:14:54;11.73;;;6.83;;
60726;SDS011;46577;49.004;12.120;2023-03-23T05:17:19;16.00;;;7.20;;
60726;SDS011;46577;49.004;12.120;2023-03-23T05:19:45;10.10;;;6.50;;
60726;SDS011;46577;49.004;12.120;2023-03-23T05:22:14;10.80;;;7.13;;
60726;SDS011;46577;49.004;12.120;2023-03-23T05:24:39;11.50;;;7.50;;
60726;SDS011;46577;49.004;12.120;2023-03-23T05:27:05;15.33;;;7.97;;
60726;SDS011;46577;49.004;12.120;2023-03-23T05:29:33;11.27;;;7.50;;
60726;SDS011;46577;49.004;12.120;2023-03-23T05:32:01;8.80;;;6.77;;
60726;SDS011;46577;49.004;12.120;2023-03-23T05:34:30;11.03;;;7.00;;
60726;SDS011;46577;49.004;12.120;2023-03-23T05:36:59;18.23;;;7.10;;
60726;SDS011;46577;49.004;12.120;2023-03-23T05:39:27;13.77;;;7.03;;
60726;SDS011;46577;49.004;12.120;2023-03-23T05:41:53;12.53;;;6.73;;
60726;SDS011;46577;49.004;12.120;2023-03-23T05:44:19;22.40;;;7.70;;
60726;SDS011;46577;49.004;12.120;2023-03-23T05:46:45;11.23;;;7.40;;
60726;SDS011;46577;49.004;12.120;2023-03-23T05:49:11;12.23;;;6.97;;
60726;SDS011;46577;49.004;12.120;2023-03-23T05:51:37;14.17;;;7.60;;
60726;SDS011;46577;49.004;12.120;2023-03-23T05:54:03;14.13;;;7.97;;
60726;SDS011;46577;49.004;12.120;2023-03-23T05:56:28;14.63;;;8.63;;
60726;SDS011;46577;49.004;12.120;2023-03-23T05:58:56;13.37;;;8.40;;
60726;SDS011;46577;49.004;12.120;2023-03-23T06:01:22;14.20;;;8.70;;
60726;SDS011;46577;49.004;12.120;2023-03-23T06:03:49;12.00;;;8.60;;
60726;SDS011;46577;49.004;12.120;2023-03-23T06:06:19;19.23;;;7.30;;
60726;SDS011;46577;49.004;12.120;2023-03-23T06:08:47;12.73;;;7.80;;
60726;SDS011;46577;49.004;12.120;2023-03-23T06:11:15;13.83;;;8.07;;
60726;SDS011;46577;49.004;12.120;2023-03-23T06:13:41;19.10;;;7.77;;
60726;SDS011;46577;49.004;12.120;2023-03-23T06:16:07;13.03;;;7.50;;
60726;SDS011;46577;49.004;12.120;2023-03-23T06:18:33;12.13;;;7.93;;
60726;SDS011;46577;49.004;12.120;2023-03-23T06:21:02;14.77;;;7.60;;
60726;SDS011;46577;49.004;12.120;2023-03-23T06:23:28;13.60;;;7.20;;
60726;SDS011;46577;49.004;12.120;2023-03-23T06:25:55;13.03;;;8.87;;
60726;SDS011;46577;49.004;12.120;2023-03-23T06:28:23;16.30;;;7.70;;
60726;SDS011;46577;49.004;12.120;2023-03-23T06:30:49;16.80;;;8.07;;
60726;SDS011;46577;49.004;12.120;2023-03-23T06:33:15;15.60;;;8.63;;
60726;SDS011;46577;49.004;12.120;2023-03-23T06:35:42;13.37;;;8.10;;
60726;SDS011;46577;49.004;12.120;2023-03-23T06:38:08;31.07;;;9.00;;
60726;SDS011;46577;49.004;12.120;2023-03-23T06:40:34;19.97;;;9.10;;
60726;SDS011;46577;49.004;12.120;2023-03-23T06:43:01;14.67;;;7.57;;
60726;SDS011;46577;49.004;12.120;2023-03-23T06:45:28;16.43;;;8.37;;
60726;SDS011;46577;49.004;12.120;2023-03-23T06:47:54;13.00;;;7.70;;
60726;SDS011;46577;49.004;12.120;2023-03-23T06:50:21;12.23;;;7.87;;
60726;SDS011;46577;49.004;12.120;2023-03-23T06:52:48;10.57;;;7.30;;
60726;SDS011;46577;49.004;12.120;2023-03-23T06:55:15;23.00;;;7.90;;
60726;SDS011;46577;49.004;12.120;2023-03-23T06:57:42;12.67;;;8.90;;
60726;SDS011;46577;49.004;12.120;2023-03-23T07:00:08;15.53;;;7.60;;
60726;SDS011;46577;49.004;12.120;2023-03-23T07:02:42;13.23;;;7.80;;
60726;SDS011;46577;49.004;12.120;2023-03-23T07:05:08;10.60;;;7.60;;
60726;SDS011;46577;49.004;12.120;2023-03-23T07:07:38;12.17;;;7.93;;
60726;SDS011;46577;49.004;12.120;2023-03-23T07:10:06;11.07;;;7.27;;
60726;SDS011;46577;49.004;12.120;2023-03-23T07:12:36;16.20;;;8.50;;
60726;SDS011;46577;49.004;12.120;2023-03-23T07:15:03;12.77;;;8.43;;
60726;SDS011;46577;49.004;12.120;2023-03-23T07:17:30;16.73;;;8.50;;
60726;SDS011;46577;49.004;12.120;2023-03-23T07:19:56;11.10;;;7.77;;
60726;SDS011;46577;49.004;12.120;2023-03-23T07:22:22;10.20;;;7.40;;
60726;SDS011;46577;49.004;12.120;2023-03-23T07:24:48;9.80;;;7.23;;
60726;SDS011;46577;49.004;12.120;2023-03-23T07:27:13;14.17;;;7.03;;
60726;SDS011;46577;49.004;12.120;2023-03-23T07:29:40;13.77;;;7.97;;
60726;SDS011;46577;49.004;12.120;2023-03-23T07:32:06;14.13;;;8.70;;
60726;SDS011;46577;49.004;12.120;2023-03-23T07:34:35;15.80;;;8.23;;
60726;SDS011;46577;49.004;12.120;2023-03-23T07:37:02;19.20;;;8.97;;
60726;SDS011;46577;49.004;12.120;2023-03-23T07:39:28;10.23;;;7.20;;
60726;SDS011;46577;49.004;12.120;2023-03-23T07:41:54;18.33;;;7.80;;
60726;SDS011;46577;49.004;12.120;2023-03-23T07:44:19;12.73;;;7.60;;
60726;SDS011;46577;49.004;12.120;2023-03-23T07:46:45;21.50;;;8.20;;
60726;SDS011;46577;49.004;12.120;2023-03-23T07:49:12;15.77;;;8.80;;
60726;SDS011;46577;49.004;12.120;2023-03-23T07:51:37;19.00;;;8.57;;
60726;SDS011;46577;49.004;12.120;2023-03-23T07:54:03;19.10;;;8.03;;
60726;SDS011;46577;49.004;12.120;2023-03-23T07:56:32;13.43;;;8.40;;
60726;SDS011;46577;49.004;12.120;2023-03-23T07:58:58;17.93;;;9.57;;
60726;SDS011;46577;49.004;12.120;2023-03-23T08:01:24;23.50;;;9.10;;
60726;SDS011;46577;49.004;12.120;2023-03-23T08:03:50;16.37;;;8.00;;
60726;SDS011;46577;49.004;12.120;2023-03-23T08:06:17;18.17;;;8.40;;
60726;SDS011;46577;49.004;12.120;2023-03-23T08:08:42;13.90;;;8.30;;
60726;SDS011;46577;49.004;12.120;2023-03-23T08:11:08;16.10;;;8.10;;
60726;SDS011;46577;49.004;12.120;2023-03-23T08:13:34;18.90;;;8.30;;
60726;SDS011;46577;49.004;12.120;2023-03-23T08:16:00;13.07;;;8.10;;
60726;SDS011;46577;49.004;12.120;2023-03-23T08:18:28;10.80;;;8.00;;
60726;SDS011;46577;49.004;12.120;2023-03-23T08:20:55;14.73;;;7.80;;
60726;SDS011;46577;49.004;12.120;2023-03-23T08:23:21;16.77;;;9.23;;
60726;SDS011;46577;49.004;12.120;2023-03-23T08:25:47;17.70;;;8.73;;
60726;SDS011;46577;49.004;12.120;2023-03-23T08:28:13;13.93;;;7.87;;
60726;SDS011;46577;49.004;12.120;2023-03-23T08:30:39;18.20;;;8.13;;
60726;SDS011;46577;49.004;12.120;2023-03-23T08:33:05;21.93;;;8.47;;
60726;SDS011;46577;49.004;12.120;2023-03-23T08:35:31;16.43;;;7.97;;
60726;SDS011;46577;49.004;12.120;2023-03-23T08:37:57;14.20;;;8.67;;
60726;SDS011;46577;49.004;12.120;2023-03-23T08:40:24;12.43;;;7.73;;
60726;SDS011;46577;49.004;12.120;2023-03-23T08:42:51;18.93;;;8.50;;
60726;SDS011;46577;49.004;12.120;2023-03-23T08:45:18;14.93;;;7.73;;
60726;SDS011;46577;49.004;12.120;2023-03-23T08:47:46;13.37;;;7.07;;
60726;SDS011;46577;49.004;12.120;2023-03-23T08:50:18;12.53;;;7.90;;
60726;SDS011;46577;49.004;12.120;2023-03-23T08:52:47;18.73;;;8.50;;
60726;SDS011;46577;49.004;12.120;2023-03-23T08:55:14;15.10;;;8.20;;
60726;SDS011;46577;49.004;12.120;2023-03-23T08:57:40;13.90;;;8.30;;
60726;SDS011;46577;49.004;12.120;2023-03-23T09:00:08;16.00;;;8.07;;
60726;SDS011;46577;49.004;12.120;2023-03-23T09:02:43;10.17;;;7.40;;
60726;SDS011;46577;49.004;12.120;2023-03-23T09:05:10;16.87;;;7.50;;
60726;SDS011;46577;49.004;12.120;2023-03-23T09:07:37;18.80;;;8.00;;
60726;SDS011;46577;49.004;12.120;2023-03-23T09:10:04;9.50;;;7.03;;
60726;SDS011;46577;49.004;12.120;2023-03-23T09:12:30;20.83;;;6.73;;
60726;SDS011;46577;49.004;12.120;2023-03-23T09:14:56;19.90;;;8.10;;
60726;SDS011;46577;49.004;12.120;2023-03-23T09:17:22;14.90;;;7.40;;
60726;SDS011;46577;49.004;12.120;2023-03-23T09:19:47;15.77;;;7.30;;
60726;SDS011;46577;49.004;12.120;2023-03-23T09:22:13;13.70;;;8.10;;
60726;SDS011;46577;49.004;12.120;2023-03-23T09:24:40;20.77;;;8.33;;
60726;SDS011;46577;49.004;12.120;2023-03-23T09:27:06;19.80;;;8.33;;
60726;SDS011;46577;49.004;12.120;2023-03-23T09:29:32;9.53;;;7.17;;
60726;SDS011;46577;49.004;12.120;2023-03-23T09:31:58;8.73;;;6.70;;
60726;SDS011;46577;49.004;12.120;2023-03-23T09:34:24;12.03;;;6.70;;
60726;SDS011;46577;49.004;12.120;2023-03-23T09:36:50;13.73;;;7.50;;
60726;SDS011;46577;49.004;12.120;2023-03-23T09:39:16;10.70;;;7.40;;
60726;SDS011;46577;49.004;12.120;2023-03-23T09:47:25;15.47;;;7.93;;
60726;SDS011;46577;49.004;12.120;2023-03-23T09:50:16;11.07;;;7.23;;
60726;SDS011;46577;49.004;12.120;2023-03-23T09:52:53;18.73;;;7.67;;
60726;SDS011;46577;49.004;12.120;2023-03-23T09:55:34;12.67;;;7.30;;
60726;SDS011;46577;49.004;12.120;2023-03-23T10:01:02;12.20;;;7.70;;
60726;SDS011;46577;49.004;12.120;2023-03-23T10:03:42;18.97;;;7.73;;
60726;SDS011;46577;49.004;12.120;2023-03-23T10:06:10;10.03;;;7.40;;
60726;SDS011;46577;49.004;12.120;2023-03-23T10:08:47;12.50;;;7.10;;
60726;SDS011;46577;49.004;12.120;2023-03-23T10:14:13;16.03;;;7.57;;
60726;SDS011;46577;49.004;12.120;2023-03-23T10:22:54;11.30;;;7.83;;
60726;SDS011;46577;49.004;12.120;2023-03-23T10:25:26;12.20;;;7.80;;
60726;SDS011;46577;49.004;12.120;2023-03-23T10:30:53;12.67;;;7.57;;
60726;SDS011;46577;49.004;12.120;2023-03-23T10:33:38;16.17;;;9.47;;
60726;SDS011;46577;49.004;12.120;2023-03-23T10:36:24;15.63;;;7.90;;
60726;SDS011;46577;49.004;12.120;2023-03-23T10:39:28;11.00;;;7.67;;
60726;SDS011;46577;49.004;12.120;2023-03-23T10:41:48;12.23;;;9.30;;
60726;SDS011;46577;49.004;12.120;2023-03-23T10:44:21;11.30;;;8.23;;
60726;SDS011;46577;49.004;12.120;2023-03-23T10:49:29;13.57;;;7.70;;
60726;SDS011;46577;49.004;12.120;2023-03-23T10:52:12;10.37;;;8.10;;
60726;SDS011;46577;49.004;12.120;2023-03-23T10:55:11;14.60;;;8.47;;
60726;SDS011;46577;49.004;12.120;2023-03-23T10:57:41;10.10;;;7.10;;
60726;SDS011;46577;49.004;12.120;2023-03-23T11:03:20;9.20;;;7.13;;
60726;SDS011;46577;49.004;12.120;2023-03-23T11:05:55;11.80;;;7.13;;
60726;SDS011;46577;49.004;12.120;2023-03-23T11:08:26;13.27;;;6.07;;
60726;SDS011;46577;49.004;12.120;2023-03-23T11:13:45;12.57;;;6.07;;
60726;SDS011;46577;49.004;12.120;2023-03-23T11:16:25;13.00;;;5.97;;
60726;SDS011;46577;49.004;12.120;2023-03-23T11:18:56;13.53;;;7.93;;
60726;SDS011;46577;49.004;12.120;2023-03-23T11:21:23;7.37;;;5.90;;
60726;SDS011;46577;49.004;12.120;2023-03-23T11:23:54;17.93;;;6.37;;
60726;SDS011;46577;49.004;12.120;2023-03-23T11:26:30;8.47;;;5.30;;
60726;SDS011;46577;49.004;12.120;2023-03-23T11:29:04;7.10;;;4.20;;
60726;SDS011;46577;49.004;12.120;2023-03-23T11:31:43;3.20;;;2.63;;
60726;SDS011;46577;49.004;12.120;2023-03-23T11:36:43;6.60;;;2.10;;
60726;SDS011;46577;49.004;12.120;2023-03-23T11:39:24;2.67;;;1.70;;
60726;SDS011;46577;49.004;12.120;2023-03-23T11:41:52;5.07;;;1.93;;
60726;SDS011;46577;49.004;12.120;2023-03-23T11:44:20;4.03;;;1.87;;
60726;SDS011;46577;49.004;12.120;2023-03-23T11:49:57;4.70;;;1.80;;
60726;SDS011;46577;49.004;12.120;2023-03-23T11:55:19;2.00;;;1.50;;
60726;SDS011;46577;49.004;12.120;2023-03-23T11:57:50;7.00;;;1.47;;
60726;SDS011;46577;49.004;12.120;2023-03-23T12:00:20;3.63;;;1.80;;
60726;SDS011;46577;49.004;12.120;2023-03-23T12:02:53;2.30;;;1.60;;
60726;SDS011;46577;49.004;12.120;2023-03-23T12:05:47;2.33;;;1.67;;
60726;SDS011;46577;49.004;12.120;2023-03-23T12:11:32;3.50;;;1.80;;
60726;SDS011;46577;49.004;12.120;2023-03-23T12:14:24;2.73;;;1.80;;
60726;SDS011;46577;49.004;12.120;2023-03-23T12:19:46;2.60;;;1.63;;
60726;SDS011;46577;49.004;12.120;2023-03-23T12:33:50;2.07;;;1.60;;
60726;SDS011;46577;49.004;12.120;2023-03-23T12:42:16;3.30;;;1.67;;
60726;SDS011;46577;49.004;12.120;2023-03-23T12:44:46;2.17;;;1.73;;
60726;SDS011;46577;49.004;12.120;2023-03-23T12:47:31;3.57;;;2.03;;
60726;SDS011;46577;49.004;12.120;2023-03-23T12:50:07;4.50;;;2.03;;
60726;SDS011;46577;49.004;12.120;2023-03-23T12:58:09;4.03;;;2.10;;
60726;SDS011;46577;49.004;12.120;2023-03-23T13:03:59;1.80;;;1.30;;
60726;SDS011;46577;49.004;12.120;2023-03-23T13:11:51;2.70;;;1.77;;
60726;SDS011;46577;49.004;12.120;2023-03-23T13:27:59;2.57;;;1.90;;
60726;SDS011;46577;49.004;12.120;2023-03-23T13:30:26;2.77;;;1.80;;
60726;SDS011;46577;49.004;12.120;2023-03-23T13:33:00;1.90;;;1.63;;
60726;SDS011;46577;49.004;12.120;2023-03-23T13:35:32;1.67;;;1.43;;
60726;SDS011;46577;49.004;12.120;2023-03-23T13:38:02;6.47;;;1.50;;
60726;SDS011;46577;49.004;12.120;2023-03-23T13:40:41;2.50;;;1.40;;
60726;SDS011;46577;49.004;12.120;2023-03-23T13:43:09;4.20;;;1.80;;
60726;SDS011;46577;49.004;12.120;2023-03-23T13:45:36;2.20;;;1.40;;
60726;SDS011;46577;49.004;12.120;2023-03-23T13:50:51;2.27;;;1.53;;
60726;SDS011;46577;49.004;12.120;2023-03-23T13:53:50;1.50;;;1.33;;
60726;SDS011;46577;49.004;12.120;2023-03-23T13:58:50;2.40;;;1.63;;
60726;SDS011;46577;49.004;12.120;2023-03-23T14:01:30;1.47;;;1.37;;
60726;SDS011;46577;49.004;12.120;2023-03-23T14:03:59;2.43;;;1.50;;
60726;SDS011;46577;49.004;12.120;2023-03-23T14:06:26;2.40;;;1.40;;
60726;SDS011;46577;49.004;12.120;2023-03-23T14:09:03;3.67;;;1.40;;
60726;SDS011;46577;49.004;12.120;2023-03-23T14:11:31;2.20;;;1.10;;
60726;SDS011;46577;49.004;12.120;2023-03-23T14:16:31;2.00;;;1.20;;
60726;SDS011;46577;49.004;12.120;2023-03-23T14:19:02;3.67;;;1.30;;
60726;SDS011;46577;49.004;12.120;2023-03-23T14:21:39;5.47;;;1.40;;
60726;SDS011;46577;49.004;12.120;2023-03-23T14:24:09;1.60;;;1.10;;
60726;SDS011;46577;49.004;12.120;2023-03-23T14:26:35;6.00;;;1.93;;
60726;SDS011;46577;49.004;12.120;2023-03-23T14:29:03;1.40;;;1.30;;
60726;SDS011;46577;49.004;12.120;2023-03-23T14:31:29;1.13;;;1.03;;
60726;SDS011;46577;49.004;12.120;2023-03-23T14:33:55;2.30;;;1.10;;
60726;SDS011;46577;49.004;12.120;2023-03-23T14:36:26;4.93;;;1.40;;
60726;SDS011;46577;49.004;12.120;2023-03-23T14:39:01;2.90;;;1.47;;
60726;SDS011;46577;49.004;12.120;2023-03-23T14:41:31;5.00;;;1.27;;
60726;SDS011;46577;49.004;12.120;2023-03-23T14:43:59;3.30;;;1.60;;
60726;SDS011;46577;49.004;12.120;2023-03-23T14:46:27;1.27;;;1.17;;
60726;SDS011;46577;49.004;12.120;2023-03-23T14:48:54;2.40;;;1.37;;
60726;SDS011;46577;49.004;12.120;2023-03-23T14:51:20;2.57;;;1.47;;
60726;SDS011;46577;49.004;12.120;2023-03-23T14:53:46;1.77;;;1.37;;
60726;SDS011;46577;49.004;12.120;2023-03-23T14:56:17;1.63;;;1.30;;
60726;SDS011;46577;49.004;12.120;2023-03-23T14:58:45;2.00;;;1.20;;
60726;SDS011;46577;49.004;12.120;2023-03-23T15:01:18;4.40;;;1.40;;
60726;SDS011;46577;49.004;12.120;2023-03-23T15:03:52;2.10;;;1.23;;
60726;SDS011;46577;49.004;12.120;2023-03-23T15:06:19;1.97;;;1.20;;
60726;SDS011;46577;49.004;12.120;2023-03-23T15:08:46;2.20;;;1.40;;
60726;SDS011;46577;49.004;12.120;2023-03-23T15:13:45;3.40;;;1.87;;
60726;SDS011;46577;49.004;12.120;2023-03-23T15:16:20;2.93;;;1.70;;
60726;SDS011;46577;49.004;12.120;2023-03-23T15:18:53;2.03;;;1.87;;
60726;SDS011;46577;49.004;12.120;2023-03-23T15:21:28;3.27;;;1.40;;
60726;SDS011;46577;49.004;12.120;2023-03-23T15:23:57;2.93;;;1.77;;
60726;SDS011;46577;49.004;12.120;2023-03-23T15:28:48;8.23;;;2.30;;
60726;SDS011;46577;49.004;12.120;2023-03-23T15:31:14;4.30;;;1.60;;
60726;SDS011;46577;49.004;12.120;2023-03-23T15:33:40;2.20;;;1.83;;
60726;SDS011;46577;49.004;12.120;2023-03-23T15:36:14;8.00;;;2.20;;
60726;SDS011;46577;49.004;12.120;2023-03-23T15:38:43;6.63;;;2.90;;
60726;SDS011;46577;49.004;12.120;2023-03-23T15:41:26;9.90;;;5.07;;
60726;SDS011;46577;49.004;12.120;2023-03-23T15:43:54;5.53;;;2.57;;
60726;SDS011;46577;49.004;12.120;2023-03-23T15:46:27;4.60;;;2.20;;
60726;SDS011;46577;49.004;12.120;2023-03-23T15:51:25;3.53;;;1.57;;
60726;SDS011;46577;49.004;12.120;2023-03-23T15:53:53;1.80;;;1.70;;
60726;SDS011;46577;49.004;12.120;2023-03-23T15:56:20;1.80;;;1.60;;
60726;SDS011;46577;49.004;12.120;2023-03-23T15:58:46;4.33;;;1.50;;
60726;SDS011;46577;49.004;12.120;2023-03-23T16:01:13;5.33;;;2.27;;
60726;SDS011;46577;49.004;12.120;2023-03-23T16:06:09;9.60;;;1.90;;
60726;SDS011;46577;49.004;12.120;2023-03-23T16:08:36;1.93;;;1.53;;
60726;SDS011;46577;49.004;12.120;2023-03-23T16:11:05;3.53;;;2.20;;
60726;SDS011;46577;49.004;12.120;2023-03-23T16:13:32;5.53;;;2.37;;
60726;SDS011;46577;49.004;12.120;2023-03-23T16:15:57;2.50;;;2.23;;
60726;SDS011;46577;49.004;12.120;2023-03-23T16:18:23;5.10;;;2.60;;
60726;SDS011;46577;49.004;12.120;2023-03-23T16:20:48;4.17;;;2.03;;
60726;SDS011;46577;49.004;12.120;2023-03-23T16:23:15;3.10;;;2.33;;
60726;SDS011;46577;49.004;12.120;2023-03-23T16:25:41;4.73;;;2.50;;
60726;SDS011;46577;49.004;12.120;2023-03-23T16:28:13;7.73;;;3.40;;
60726;SDS011;46577;49.004;12.120;2023-03-23T16:30:39;6.93;;;2.80;;
60726;SDS011;46577;49.004;12.120;2023-03-23T16:33:06;3.43;;;2.73;;
60726;SDS011;46577;49.004;12.120;2023-03-23T16:35:32;6.90;;;2.90;;
60726;SDS011;46577;49.004;12.120;2023-03-23T16:37:58;3.83;;;2.87;;
60726;SDS011;46577;49.004;12.120;2023-03-23T16:40:24;4.00;;;2.47;;
60726;SDS011;46577;49.004;12.120;2023-03-23T16:42:51;4.60;;;2.40;;
60726;SDS011;46577;49.004;12.120;2023-03-23T16:45:17;9.20;;;3.37;;
60726;SDS011;46577;49.004;12.120;2023-03-23T16:47:43;3.90;;;2.80;;
60726;SDS011;46577;49.004;12.120;2023-03-23T16:50:10;4.30;;;3.07;;